Time;durP1;ratioP1;P1;durP2;ratioP2;P2;SDS_P1;SDS_P2;PMS_P1;PMS_P2;Temp;Humidity;BMP_temperature;BMP_pressure;BME280_temperature;BME280_humidity;BME280_pressure;Samples;Min_cycle;Max_cycle;Signal;HPM_P1;HPM_P2
2022/09/01 00:01:55;;;;;;;1.13;0.80;;;11.20;99.90;;;9.96;100.00;102084.00;5035473;28;20021;-75
2022/09/01 00:04:27;;;;;;;2.90;0.70;;;11.10;99.90;;;9.89;100.00;102087.63;5017560;28;20026;-76
2022/09/01 00:06:54;;;;;;;2.13;0.55;;;11.10;99.90;;;9.87;100.00;102092.09;5018440;28;20041;-75
2022/09/01 00:09:22;;;;;;;1.15;0.70;;;11.00;99.90;;;9.83;100.00;102096.56;5000466;28;20161;-76
2022/09/01 00:11:56;;;;;;;1.08;0.70;;;11.00;99.90;;;9.80;100.00;102088.72;5033450;28;20025;-75
2022/09/01 00:14:28;;;;;;;11.70;0.73;;;11.00;99.90;;;9.71;100.00;102088.06;5018953;28;20034;-76
2022/09/01 00:16:54;;;;;;;3.25;0.63;;;10.90;99.90;;;9.67;100.00;102089.00;5015946;28;20539;-77
2022/09/01 00:19:23;;;;;;;3.25;0.60;;;10.90;99.90;;;9.63;100.00;102089.09;5016782;28;20037;-76
2022/09/01 00:21:49;;;;;;;4.88;0.88;;;10.80;99.90;;;9.61;100.00;102090.00;5016094;28;20105;-76
2022/09/01 00:24:17;;;;;;;7.38;0.80;;;10.80;99.90;;;9.60;100.00;102090.91;5004066;28;20022;-76
2022/09/01 00:26:44;;;;;;;4.88;0.68;;;10.80;99.90;;;9.56;100.00;102089.25;5002508;28;20037;-76
2022/09/01 00:29:10;;;;;;;2.15;0.73;;;10.70;99.90;;;9.51;100.00;102086.72;5018836;28;20045;-76
2022/09/01 00:31:36;;;;;;;1.85;0.50;;;10.70;99.90;;;9.50;100.00;102087.59;5031786;28;20406;-76
2022/09/01 00:34:02;;;;;;;2.05;0.85;;;10.70;99.90;;;9.48;100.00;102089.41;5002495;28;20034;-76
2022/09/01 00:36:27;;;;;;;3.35;0.70;;;10.70;99.90;;;9.44;100.00;102090.38;5004025;28;20026;-76
2022/09/01 00:38:53;;;;;;;3.00;0.70;;;10.70;99.90;;;9.41;100.00;102082.53;5036410;28;20501;-76
2022/09/01 00:41:23;;;;;;;1.70;0.68;;;10.60;99.90;;;9.39;100.00;102085.19;5028015;28;20120;-76
2022/09/01 00:44:00;;;;;;;3.95;0.80;;;10.60;99.90;;;9.37;100.00;102079.09;5030011;28;20497;-76
2022/09/01 00:46:31;;;;;;;5.28;0.70;;;10.60;99.90;;;9.37;100.00;102075.59;5000422;28;20042;-76
2022/09/01 00:49:09;;;;;;;4.60;0.80;;;10.60;99.90;;;9.35;100.00;102078.28;5019574;28;20041;-76
2022/09/01 00:51:39;;;;;;;1.48;0.80;;;10.60;99.90;;;9.34;100.00;102079.16;5018456;28;20030;-76
2022/09/01 00:54:09;;;;;;;3.80;0.75;;;10.50;99.90;;;9.32;100.00;102082.72;5017202;28;20395;-76
2022/09/01 00:56:41;;;;;;;7.00;0.85;;;10.50;99.90;;;9.31;100.00;102086.22;5016293;28;20025;-76
2022/09/01 00:59:10;;;;;;;6.07;0.98;;;10.50;99.90;;;9.31;100.00;102080.97;5016474;28;20505;-77
2022/09/01 01:01:36;;;;;;;3.83;0.73;;;10.50;99.90;;;9.31;100.00;102080.97;5015566;28;20054;-76
2022/09/01 01:04:05;;;;;;;1.45;0.60;;;10.50;99.90;;;9.31;100.00;102071.34;5018122;28;20026;-76
2022/09/01 01:06:32;;;;;;;2.08;1.13;;;10.50;99.90;;;9.30;100.00;102068.72;5019259;28;20034;-76
2022/09/01 01:09:00;;;;;;;3.10;0.70;;;10.50;99.90;;;9.29;100.00;102061.72;5020838;28;20042;-76
2022/09/01 01:11:31;;;;;;;4.30;0.95;;;10.50;99.90;;;9.22;100.00;102072.38;5026823;28;20030;-76
2022/09/01 01:14:14;;;;;;;3.80;0.75;;;10.40;99.90;;;9.18;100.00;102067.22;5023276;28;20036;-76
2022/09/01 01:16:47;;;;;;;3.22;0.80;;;10.40;99.90;;;9.19;100.00;102066.31;5020701;28;20486;-75
2022/09/01 01:23:07;;;;;;;8.65;0.77;;;10.30;99.90;;;9.15;100.00;102060.25;5021314;28;20060;-76
2022/09/01 01:25:45;;;;;;;7.35;1.00;;;10.30;99.90;;;9.14;100.00;102058.53;5021224;28;20069;-76
2022/09/01 01:28:20;;;;;;;;;;;10.30;99.90;;;9.13;100.00;102063.81;5038012;28;20132;-77
2022/09/01 01:30:58;;;;;;;2.03;0.77;;;10.30;99.90;;;9.12;100.00;102068.19;5037592;28;19913;-76
2022/09/01 01:33:29;;;;;;;6.60;1.25;;;9.70;99.90;;;9.16;100.00;102071.66;5020292;28;20057;-76
2022/09/01 01:35:56;;;;;;;2.85;1.20;;;10.40;99.90;;;9.20;100.00;102068.03;5036592;28;20026;-76
2022/09/01 01:38:23;;;;;;;5.45;1.27;;;10.40;99.90;;;9.20;100.00;102063.66;5021412;28;20516;-76
2022/09/01 01:40:52;;;;;;;2.38;1.10;;;10.30;99.90;;;9.18;100.00;102062.84;5004478;28;20032;-77
2022/09/01 01:43:26;;;;;;;1.63;1.08;;;10.30;99.90;;;9.15;100.00;102062.88;5019970;28;20029;-76
2022/09/01 01:45:57;;;;;;;3.45;1.35;;;10.30;99.90;;;9.13;100.00;102062.03;5020653;28;20053;-75
2022/09/01 01:48:27;;;;;;;13.63;1.70;;;10.30;99.90;;;9.13;100.00;102062.03;5006662;28;20056;-76
2022/09/01 01:50:54;;;;;;;4.00;1.50;;;10.30;99.90;;;9.15;100.00;102069.91;5018022;28;20509;-76
2022/09/01 01:53:21;;;;;;;6.80;1.15;;;10.30;99.90;;;9.15;100.00;102062.00;5019791;28;20620;-76
2022/09/01 01:55:50;;;;;;;5.72;1.02;;;10.30;99.90;;;9.14;100.00;102063.78;5003123;28;20100;-75
2022/09/01 01:58:18;;;;;;;2.75;1.17;;;10.30;99.90;;;9.11;100.00;102055.09;5004407;28;20029;-76
2022/09/01 02:00:46;;;;;;;6.78;1.38;;;10.30;99.90;;;9.09;100.00;102052.47;5038671;28;20026;-76
2022/09/01 02:03:27;;;;;;;8.82;1.33;;;10.30;99.90;;;9.07;100.00;102046.41;5036086;28;20490;-76
2022/09/01 02:05:54;;;;;;;6.53;1.15;;;10.20;99.90;;;9.07;100.00;102051.66;5020123;28;20025;-76
2022/09/01 02:08:24;;;;;;;3.17;1.08;;;10.20;99.90;;;9.05;100.00;102045.56;5035114;28;20093;-76
2022/09/01 02:10:54;;;;;;;12.05;2.00;;;10.20;99.90;;;9.01;100.00;102055.25;5027757;28;20041;-76
2022/09/01 02:13:24;;;;;;;4.03;1.17;;;10.20;99.90;;;8.97;100.00;102050.97;5020310;28;20176;-76
2022/09/01 02:15:54;;;;;;;7.72;1.30;;;10.20;99.90;;;8.92;100.00;102050.19;5020460;28;20025;-76
2022/09/01 02:18:29;;;;;;;2.72;1.00;;;10.10;99.90;;;8.91;100.00;102050.22;5000428;28;20145;-76
2022/09/01 02:20:59;;;;;;;3.13;1.52;;;10.10;99.90;;;8.83;100.00;102043.34;5021231;28;20066;-76
2022/09/01 02:23:25;;;;;;;10.02;1.45;;;10.10;99.90;;;8.83;100.00;102042.47;5003683;28;20513;-77
2022/09/01 02:25:55;;;;;;;7.60;1.60;;;10.10;99.90;;;8.79;100.00;102049.53;5002985;28;20124;-76
2022/09/01 02:28:27;;;;;;;12.68;1.40;;;10.00;99.90;;;8.79;100.00;102040.78;5020275;28;20508;-76
2022/09/01 02:30:56;;;;;;;2.88;1.17;;;10.00;99.90;;;8.77;100.00;102035.56;5033744;28;20026;-76
2022/09/01 02:33:23;;;;;;;6.03;1.25;;;10.00;99.90;;;8.78;100.00;102037.28;5003851;28;20058;-76
2022/09/01 02:35:56;;;;;;;6.75;1.20;;;10.00;99.90;;;8.74;100.00;102029.50;5022508;28;20030;-76
2022/09/01 02:38:27;;;;;;;7.20;1.30;;;9.90;99.90;;;8.66;100.00;102029.66;5002561;28;20375;-76
2022/09/01 02:40:58;;;;;;;8.32;1.33;;;9.90;99.90;;;8.58;100.00;102026.28;5020001;28;20028;-77
2022/09/01 02:43:28;;;;;;;9.25;1.23;;;9.80;99.90;;;8.52;100.00;102015.91;5016682;28;20490;-76
2022/09/01 02:46:00;;;;;;;9.20;1.00;;;9.80;99.90;;;8.51;100.00;102022.03;5035938;28;20040;-76
2022/09/01 02:48:39;;;;;;;7.80;1.10;;;9.80;99.90;;;8.53;100.00;102023.75;5019160;28;20486;-76
2022/09/01 02:51:13;;;;;;;9.20;1.10;;;9.80;99.90;;;8.52;100.00;102022.00;5037212;28;20044;-77
2022/09/01 02:53:41;;;;;;;5.95;1.17;;;9.80;99.90;;;8.55;100.00;102026.34;5003029;28;20514;-76
2022/09/01 02:56:12;;;;;;;5.82;1.50;;;9.80;99.90;;;8.60;100.00;102027.13;5000694;28;20036;-77
2022/09/01 02:58:46;;;;;;;1.73;1.10;;;9.80;99.90;;;8.61;100.00;102019.22;5035351;28;20022;-77
2022/09/01 03:01:28;;;;;;;4.20;1.65;;;9.90;99.90;;;8.65;100.00;102017.41;5020165;28;20033;-76
2022/09/01 03:03:59;;;;;;;6.63;1.45;;;9.80;99.90;;;8.66;100.00;102021.78;5020105;28;20115;-76
2022/09/01 03:06:25;;;;;;;4.43;1.55;;;9.90;99.90;;;8.67;100.00;102026.13;5016112;28;20056;-76
2022/09/01 03:08:57;;;;;;;4.13;1.27;;;9.90;99.90;;;8.66;100.00;102024.41;5034194;28;20045;-76
2022/09/01 03:11:23;;;;;;;6.68;1.50;;;9.80;99.90;;;8.66;100.00;102027.03;5036160;28;20061;-77
2022/09/01 03:13:50;;;;;;;6.13;0.98;;;9.80;99.90;;;8.66;100.00;102018.25;5021134;28;20033;-76
2022/09/01 03:16:15;;;;;;;6.45;1.60;;;9.80;99.90;;;8.65;100.00;102019.19;5031727;28;20505;-76
2022/09/01 03:18:44;;;;;;;5.97;1.48;;;9.80;99.90;;;8.66;100.00;102027.03;5018311;28;20030;-76
2022/09/01 03:21:15;;;;;;;3.30;1.55;;;9.80;99.90;;;8.68;100.00;102026.97;5002669;28;20112;-76
2022/09/01 03:23:43;;;;;;;7.13;1.80;;;9.80;99.90;;;8.70;100.00;102026.06;5036985;28;20033;-76
2022/09/01 03:26:09;;;;;;;6.32;2.10;;;9.90;99.90;;;8.72;100.00;102023.41;5017948;28;20026;-76
2022/09/01 03:28:38;;;;;;;6.70;2.65;;;9.90;99.90;;;8.75;100.00;102021.59;5017700;28;20023;-77
2022/09/01 03:31:04;;;;;;;5.95;1.85;;;9.90;99.90;;;8.75;100.00;102026.00;5016936;28;20056;-76
2022/09/01 03:33:31;;;;;;;5.93;2.13;;;9.90;99.90;;;8.76;100.00;102027.72;5000183;28;20029;-76
2022/09/01 03:35:58;;;;;;;3.53;1.52;;;9.90;99.90;;;8.75;100.00;102026.84;5034168;28;20108;-77
2022/09/01 03:38:25;;;;;;;5.05;2.30;;;10.00;99.90;;;8.78;100.00;102018.91;5020270;28;20732;-76
2022/09/01 03:40:57;;;;;;;5.30;1.67;;;10.00;99.90;;;8.81;100.00;102023.22;5026514;28;20037;-76
2022/09/01 03:43:26;;;;;;;2.28;1.92;;;10.00;99.90;;;8.82;100.00;102020.59;5022448;28;20513;-76
2022/09/01 03:45:54;;;;;;;9.57;2.20;;;10.00;99.90;;;8.83;100.00;102032.84;5026453;28;20486;-76
2022/09/01 03:48:25;;;;;;;4.88;1.90;;;10.00;99.90;;;8.83;100.00;102026.69;5021233;28;20022;-76
2022/09/01 03:50:54;;;;;;;18.38;2.40;;;10.00;99.90;;;8.78;100.00;102031.19;5031888;28;20490;-76
2022/09/01 03:53:26;;;;;;;6.13;1.63;;;10.00;99.90;;;8.76;100.00;102028.56;5017622;28;20100;-76
2022/09/01 03:55:55;;;;;;;5.35;1.65;;;10.00;99.90;;;8.76;100.00;102031.19;5002335;28;20409;-77
2022/09/01 03:58:22;;;;;;;5.28;1.60;;;10.00;99.90;;;8.76;100.00;102031.19;5001881;28;20026;-77
2022/09/01 04:00:54;;;;;;;6.80;1.33;;;10.00;99.90;;;8.77;100.00;102030.31;5019636;28;20026;-77
2022/09/01 04:03:23;;;;;;;10.38;2.08;;;10.00;99.90;;;8.79;100.00;102027.66;5016405;28;20034;-76
2022/09/01 04:05:51;;;;;;;5.63;2.17;;;10.00;99.90;;;8.82;100.00;102031.09;5001533;28;20033;-77
2022/09/01 04:08:20;;;;;;;8.00;2.20;;;10.00;99.90;;;8.85;100.00;102024.91;5015992;28;20033;-76
2022/09/01 04:10:52;;;;;;;3.00;1.83;;;10.00;99.90;;;8.91;100.00;102037.06;5019898;28;20057;-77
2022/09/01 04:13:26;;;;;;;5.30;1.95;;;10.10;99.90;;;8.94;100.00;102034.38;5017698;28;20668;-76
2022/09/01 04:15:55;;;;;;;5.82;2.30;;;10.10;99.90;;;8.97;100.00;102024.69;5002869;28;20033;-76
2022/09/01 04:18:22;;;;;;;5.10;2.15;;;10.10;99.90;;;9.02;100.00;102035.09;5033574;28;20445;-77
2022/09/01 04:20:58;;;;;;;9.27;2.10;;;10.20;99.90;;;9.11;100.00;102034.91;5035297;28;20168;-77
2022/09/01 04:23:28;;;;;;;6.60;1.92;;;10.20;99.90;;;9.18;100.00;102035.69;5002323;28;20033;-76
2022/09/01 04:26:02;;;;;;;7.75;1.85;;;10.30;99.90;;;9.23;100.00;102037.31;5035366;28;20465;-77
2022/09/01 04:28:45;;;;;;;1.80;1.30;;;10.40;99.90;;;9.29;100.00;102035.44;5018323;28;20095;-77
2022/09/01 04:31:17;;;;;;;3.95;1.63;;;10.40;99.90;;;9.33;100.00;102032.75;5033725;28;20104;-76
2022/09/01 04:33:51;;;;;;;8.50;1.77;;;10.50;99.90;;;9.37;100.00;102036.16;5019848;28;20095;-76
2022/09/01 04:36:32;;;;;;;4.53;1.58;;;10.50;99.90;;;9.42;100.00;102034.31;5019461;28;20025;-76
2022/09/01 04:39:00;;;;;;;6.68;1.25;;;10.60;99.90;;;9.47;100.00;102029.81;5017984;28;20035;-76
2022/09/01 04:41:32;;;;;;;2.80;1.60;;;10.60;99.90;;;9.53;100.00;102024.44;5001292;28;20041;-77
2022/09/01 04:44:03;;;;;;;9.90;2.33;;;10.70;99.90;;;9.57;100.00;102022.63;5002712;28;20172;-77
2022/09/01 04:46:39;;;;;;;5.57;1.60;;;10.70;99.90;;;9.58;100.00;102029.59;5022982;28;20041;-77
2022/09/01 04:49:09;;;;;;;3.60;1.77;;;10.70;99.90;;;9.60;100.00;102028.66;5022794;28;20515;-77
2022/09/01 04:51:41;;;;;;;5.82;1.73;;;10.70;99.90;;;9.65;100.00;102034.69;5002531;28;20033;-77
2022/09/01 04:54:12;;;;;;;5.80;1.60;;;10.80;99.90;;;9.74;100.00;102038.00;5021370;28;20040;-77
2022/09/01 04:56:45;;;;;;;4.75;1.67;;;10.90;99.90;;;9.83;100.00;102035.19;5021643;28;20061;-77
2022/09/01 04:59:12;;;;;;;5.32;2.00;;;10.90;99.90;;;9.93;100.00;102038.47;5022509;28;20045;-76
2022/09/01 05:01:45;;;;;;;3.50;1.88;;;11.00;99.90;;;10.01;100.00;102034.75;5022007;28;20482;-77
2022/09/01 05:04:45;;;;;;;2.97;1.95;;;11.10;99.90;;;10.15;100.00;102033.56;5027525;28;20053;-77
2022/09/01 05:07:13;;;;;;;5.40;2.05;;;11.20;99.90;;;10.22;100.00;102036.00;5023286;28;20105;-76
2022/09/01 05:09:39;;;;;;;2.40;1.92;;;11.30;99.90;;;10.32;100.00;102031.41;5037738;28;20034;-76
2022/09/01 05:12:14;;;;;;;4.53;2.30;;;11.40;99.90;;;10.42;100.00;102026.78;5021281;28;20026;-77
2022/09/01 05:14:47;;;;;;;9.25;2.47;;;11.50;99.90;;;10.50;100.00;102026.59;5020162;28;20026;-77
2022/09/01 05:17:13;;;;;;;2.88;2.05;;;11.50;99.90;;;10.55;100.00;102032.63;5019315;28;20394;-77
2022/09/01 05:19:43;;;;;;;4.55;2.30;;;11.60;99.90;;;10.59;100.00;102019.31;5005755;28;20021;-76
2022/09/01 05:22:09;;;;;;;3.97;2.10;;;11.60;99.90;;;10.65;100.00;102024.44;5022937;28;20026;-77
2022/09/01 05:24:39;;;;;;;6.95;2.10;;;11.70;99.90;;;10.72;100.00;102032.19;5037664;28;20029;-77
2022/09/01 05:27:06;;;;;;;4.13;2.13;;;11.80;99.90;;;10.77;100.00;102031.13;5003798;28;20030;-77
2022/09/01 05:29:33;;;;;;;6.90;2.00;;;11.90;99.90;;;10.84;100.00;102030.09;5004246;28;20125;-76
2022/09/01 05:31:59;;;;;;;4.82;2.53;;;11.90;99.90;;;10.87;100.00;102030.00;5020295;28;20398;-77
2022/09/01 05:34:25;;;;;;;4.22;2.00;;;12.00;99.90;;;10.94;100.00;102030.69;5038843;28;20033;-77
2022/09/01 05:36:56;;;;;;;3.00;2.00;;;12.00;99.90;;;11.02;100.00;102027.84;5020585;28;20034;-76
2022/09/01 05:39:23;;;;;;;2.22;1.88;;;12.10;99.90;;;11.09;100.00;102029.41;5004365;28;20375;-76
2022/09/01 05:41:51;;;;;;;1.83;1.65;;;12.10;99.90;;;11.19;100.00;102035.28;5002985;28;20021;-77
2022/09/01 05:44:17;;;;;;;2.65;1.70;;;12.20;99.90;;;11.26;100.00;102035.06;5039335;28;20038;-77
2022/09/01 05:46:43;;;;;;;3.15;1.90;;;12.30;99.90;;;11.35;100.00;102035.72;5036795;28;20060;-77
2022/09/01 05:49:17;;;;;;;2.67;1.73;;;12.40;99.90;;;11.46;100.00;102038.88;5021185;28;20032;-77
2022/09/01 05:51:57;;;;;;;5.47;1.80;;;12.50;99.90;;;11.54;100.00;102030.75;4999034;28;20033;-77
2022/09/01 05:54:26;;;;;;;4.45;2.00;;;12.50;99.90;;;11.63;100.00;102031.34;5005870;28;20026;-76
2022/09/01 05:56:54;;;;;;;4.70;1.75;;;12.60;99.90;;;11.73;100.00;102031.03;5021030;28;20390;-76
2022/09/01 05:59:22;;;;;;;5.45;1.92;;;12.70;99.90;;;11.83;100.00;102038.63;5003832;28;20037;-77
2022/09/01 06:01:49;;;;;;;4.35;2.13;;;12.80;99.90;;;11.94;100.00;102034.84;5020073;28;20468;-77
2022/09/01 06:04:15;;;;;;;3.85;1.77;;;12.90;99.90;;;12.03;100.00;102032.78;5001676;28;20400;-76
2022/09/01 06:06:48;;;;;;;4.88;1.90;;;13.00;99.90;;;12.15;100.00;102035.94;5006300;28;20060;-77
2022/09/01 06:09:22;;;;;;;3.10;1.80;;;13.10;99.90;;;12.26;100.00;102037.31;5020773;28;20486;-77
2022/09/01 06:11:48;;;;;;;4.03;2.33;;;13.30;99.90;;;12.41;100.00;102038.56;5002373;28;20685;-76
2022/09/01 06:14:18;;;;;;;4.03;1.80;;;13.40;99.90;;;12.58;100.00;102042.44;5018681;28;20042;-77
2022/09/01 06:20:17;;;;;;;6.25;2.13;;;13.60;99.90;;;13.05;100.00;102045.22;5005732;28;20046;-81
2022/09/01 06:23:16;;;;;;;2.92;1.67;;;14.00;99.90;;;13.43;100.00;102048.25;5019542;28;20029;-81
2022/09/01 06:26:55;;;;;;;3.70;1.95;;;14.30;99.90;;;13.84;100.00;102040.50;5004160;28;20383;-81
2022/09/01 06:29:38;;;;;;;4.40;1.80;;;14.50;99.90;;;14.19;100.00;102041.75;4836805;29;20038;-81
2022/09/01 06:32:18;;;;;;;2.58;1.65;;;14.90;99.90;;;14.82;100.00;102043.56;4836980;29;20030;-81
2022/09/01 06:35:45;;;;;;;5.75;2.05;;;15.30;99.90;;;15.10;100.00;102049.38;4893912;29;20037;-81
2022/09/01 06:38:55;;;;;;;5.65;1.98;;;15.70;99.90;;;15.65;100.00;102050.44;4910744;29;20429;-81
2022/09/01 06:41:38;;;;;;;3.97;1.83;;;16.20;99.90;;;17.22;100.00;102064.81;4927620;28;20034;-79
2022/09/01 06:44:14;;;;;;;3.95;1.27;;;;;;;18.26;92.77;102059.97;4956469;28;20034;-79
2022/09/01 06:47:46;;;;;;;4.60;1.47;;;17.90;99.90;;;19.03;85.86;102054.50;4989333;28;20041;-80
2022/09/01 06:50:53;;;;;;;3.97;1.25;;;18.70;99.90;;;19.03;83.21;102057.16;4944665;28;20305;-79
2022/09/01 06:54:06;;;;;;;;;;;19.30;99.90;;;23.14;72.55;102076.88;4964175;28;20042;-80
2022/09/01 07:00:34;;;;;;;5.28;0.90;;;24.40;99.90;;;28.53;54.28;102065.31;4999112;28;20124;-80
2022/09/01 07:03:25;;;;;;;5.55;0.90;;;26.20;99.90;;;29.14;51.71;102074.38;5043763;28;20520;-80
2022/09/01 07:13:46;;;;;;;1.48;0.88;;;;;;;31.84;46.17;102087.16;4969438;28;20443;-80
2022/09/01 07:17:06;;;;;;;1.35;0.85;;;30.20;98.50;;;29.38;47.82;102089.91;4947685;23;20090;-80
2022/09/01 07:19:56;;;;;;;0.82;0.80;;;29.90;98.40;;;30.88;46.18;102103.66;5060101;28;20032;-80
2022/09/01 07:25:37;;;;;;;1.75;0.68;;;31.10;98.60;;;32.14;45.19;102098.25;5037330;28;20095;-80
2022/09/01 07:28:07;;;;;;;1.65;0.80;;;31.60;95.80;;;32.55;44.00;102094.38;5046174;28;20487;-80
2022/09/01 07:30:39;;;;;;;2.05;0.60;;;32.20;94.40;;;32.95;42.94;102095.84;5044586;28;20112;-80
2022/09/01 07:33:10;;;;;;;3.13;0.93;;;32.60;94.20;;;33.26;42.66;102108.50;5027234;28;20030;-81
2022/09/01 07:35:40;;;;;;;3.17;0.70;;;32.90;93.10;;;33.28;41.80;102106.44;5058488;28;20049;-80
2022/09/01 07:38:08;;;;;;;1.63;0.60;;;33.20;92.70;;;33.53;41.02;102112.44;5050295;23;20170;-80
2022/09/01 07:40:44;;;;;;;2.53;0.60;;;33.20;91.40;;;33.03;40.96;102109.41;5051517;28;20402;-81
2022/09/01 07:43:26;;;;;;;3.92;0.52;;;33.10;91.90;;;32.83;41.44;102111.84;5051971;28;20032;-80
2022/09/01 07:45:58;;;;;;;3.38;0.65;;;33.30;91.00;;;32.90;41.93;102118.25;5061350;28;20029;-82
2022/09/01 07:48:27;;;;;;;3.22;0.70;;;33.30;91.00;;;33.01;41.17;102124.28;5041636;28;20021;-80
2022/09/01 07:50:55;;;;;;;6.50;0.50;;;33.10;90.40;;;31.30;42.29;102111.56;5021737;28;20030;-79
2022/09/01 07:53:34;;;;;;;2.03;0.60;;;31.90;90.60;;;29.15;45.06;102115.91;5044516;28;20031;-78
2022/09/01 07:56:09;;;;;;;1.77;0.40;;;30.30;92.40;;;27.46;48.41;102112.00;5042194;28;20132;-82
2022/09/01 07:58:39;;;;;;;1.85;0.45;;;28.80;93.10;;;25.89;51.11;102104.97;5022708;28;20056;-79
2022/09/01 08:01:16;;;;;;;1.40;0.65;;;27.40;94.90;;;25.11;53.37;102115.38;5025437;28;20025;-79
2022/09/01 08:03:42;;;;;;;1.40;0.60;;;26.80;95.90;;;26.10;51.49;102117.53;5039850;28;20056;-79
2022/09/01 08:06:11;;;;;;;2.35;0.40;;;27.40;95.00;;;27.41;48.44;102109.75;5020940;28;20033;-80
2022/09/01 08:08:46;;;;;;;2.17;0.70;;;27.50;96.60;;;26.52;49.59;102107.31;5058528;28;20485;-79
2022/09/01 08:11:25;;;;;;;2.38;0.43;;;26.90;92.00;;;24.85;49.59;102104.16;5038933;28;20060;-79
2022/09/01 08:13:52;;;;;;;0.28;0.28;;;26.40;92.50;;;24.65;48.50;102087.00;5039191;28;20104;-80
2022/09/01 08:16:19;;;;;;;0.90;0.30;;;25.90;92.30;;;23.99;49.47;102092.47;5028628;28;20450;-77
2022/09/01 08:18:51;;;;;;;2.42;0.30;;;25.20;93.90;;;23.00;51.33;102090.50;5028398;28;20068;-79
2022/09/01 08:21:20;;;;;;;3.92;0.55;;;23.80;94.90;;;21.41;55.05;102090.63;5044700;28;20033;-79
2022/09/01 08:23:47;;;;;;;3.47;0.50;;;23.00;97.40;;;21.33;56.51;102096.50;5025391;28;20112;-77
2022/09/01 08:26:20;;;;;;;16.67;0.70;;;22.50;98.00;;;20.93;56.90;102101.97;5027058;28;20025;-79
2022/09/01 08:28:46;;;;;;;2.22;0.50;;;22.10;99.00;;;20.79;58.15;102092.19;5028360;28;20030;-79
2022/09/01 08:31:19;;;;;;;3.67;0.43;;;21.70;99.90;;;20.20;59.07;102103.25;5043536;28;20033;-81
2022/09/01 08:33:47;;;;;;;0.98;0.40;;;21.30;99.90;;;19.87;60.96;102099.13;5045297;28;20055;-79
2022/09/01 08:36:14;;;;;;;2.47;0.35;;;20.70;99.90;;;19.27;62.01;102094.00;5041920;28;20025;-80
2022/09/01 08:38:41;;;;;;;2.40;0.20;;;20.60;99.90;;;19.30;62.80;102099.13;5040875;28;20021;-80
2022/09/01 08:41:51;;;;;;;7.35;0.70;;;20.60;99.90;;;19.57;63.48;102091.22;5045469;28;20514;-80
2022/09/01 08:44:48;;;;;;;0.70;0.30;;;20.50;99.90;;;19.50;63.40;102092.53;5047499;28;20033;-79
2022/09/01 08:47:18;;;;;;;0.60;0.30;;;20.50;99.90;;;19.83;62.95;102097.59;5042321;28;20060;-81
2022/09/01 08:49:49;;;;;;;3.10;0.38;;;20.60;99.90;;;19.97;62.35;102090.50;5059129;28;20028;-79
2022/09/01 08:52:33;;;;;;;1.58;0.50;;;20.60;99.90;;;19.97;62.84;102088.69;5042535;28;20160;-80
2022/09/01 08:55:06;;;;;;;0.52;0.40;;;20.70;99.90;;;20.17;62.59;102090.09;5043649;28;20050;-80
2022/09/01 08:57:50;;;;;;;1.17;0.43;;;20.90;99.90;;;20.74;62.13;102097.00;5041209;28;20159;-81
2022/09/01 09:00:19;;;;;;;1.60;0.43;;;21.10;99.90;;;20.80;60.51;102093.03;5043972;28;20018;-80
2022/09/01 09:03:04;;;;;;;1.70;0.40;;;21.40;99.90;;;21.19;59.75;102085.94;5027777;28;20021;-80
2022/09/01 09:05:53;;;;;;;3.10;0.40;;;21.60;99.90;;;21.06;58.60;102081.41;5040621;28;20129;-80
2022/09/01 09:09:04;;;;;;;0.93;0.40;;;21.80;99.90;;;21.19;57.78;102080.56;5045224;28;20037;-79
2022/09/01 09:11:57;;;;;;;1.17;0.50;;;22.00;99.90;;;21.75;60.01;102080.16;5039163;28;20053;-80
2022/09/01 09:14:54;;;;;;;2.47;0.30;;;22.30;99.90;;;21.44;55.93;102074.34;5029823;28;20040;-80
2022/09/01 09:17:28;;;;;;;1.50;0.30;;;22.40;99.90;;;21.60;57.22;102079.47;5043306;28;20124;-81
2022/09/01 09:19:57;;;;;;;3.13;0.40;;;22.10;99.90;;;21.06;59.21;102076.06;5027025;28;20394;-80
2022/09/01 09:22:23;;;;;;;0.70;0.40;;;21.80;99.90;;;20.74;59.73;102080.09;5026280;28;20049;-80
2022/09/01 09:25:18;;;;;;;2.40;0.40;;;21.60;99.90;;;20.40;59.47;102067.13;5049126;28;20033;-80
2022/09/01 09:27:51;;;;;;;1.85;0.30;;;21.10;99.90;;;19.83;61.24;102080.72;5024223;28;20111;-80
2022/09/01 09:30:27;;;;;;;2.13;0.40;;;20.80;99.90;;;19.52;61.49;102068.41;5040848;28;20046;-79
2022/09/01 09:33:04;;;;;;;0.77;0.57;;;20.50;99.90;;;19.42;62.65;102077.00;5040483;28;20061;-80
2022/09/01 09:35:35;;;;;;;1.13;0.32;;;20.30;99.90;;;19.24;62.25;102064.78;5032928;28;20133;-79
2022/09/01 09:38:27;;;;;;;2.28;0.50;;;20.20;99.90;;;19.25;62.66;102074.53;5048676;28;20045;-78
2022/09/01 09:41:08;;;;;;;0.75;0.38;;;20.00;99.90;;;19.06;62.56;102066.78;5057532;28;20052;-79
2022/09/01 09:43:57;;;;;;;7.03;0.75;;;20.00;99.90;;;19.07;62.92;102068.53;5056331;28;20037;-78
2022/09/01 09:46:39;;;;;;;3.08;0.43;;;20.00;99.90;;;19.18;62.44;102066.03;5033239;28;20056;-78
2022/09/01 09:49:35;;;;;;;2.10;0.55;;;20.10;99.90;;;19.50;62.37;102062.31;5042205;28;20079;-78
2022/09/01 09:52:27;;;;;;;2.30;0.45;;;20.30;99.90;;;19.66;60.31;102052.38;5043311;28;20422;-79
2022/09/01 09:55:22;;;;;;;0.30;0.20;;;20.40;99.90;;;19.59;60.16;102045.69;5026627;28;20060;-79
2022/09/01 09:57:59;;;;;;;0.63;0.40;;;20.50;99.90;;;19.81;60.68;102061.25;5054276;28;20034;-79
2022/09/01 10:00:34;;;;;;;3.00;0.40;;;20.50;99.90;;;19.63;59.81;102052.53;5025112;28;20033;-79
2022/09/01 10:03:11;;;;;;;2.45;0.40;;;20.40;99.90;;;19.24;60.66;102056.78;5057958;28;20029;-78
2022/09/01 10:05:55;;;;;;;2.05;0.45;;;20.10;99.90;;;19.04;61.52;102053.53;5037834;28;20042;-79
2022/09/01 10:08:36;;;;;;;5.82;0.47;;;20.00;99.90;;;19.03;61.45;102053.66;5041887;28;20116;-79
2022/09/01 10:11:06;;;;;;;0.52;0.40;;;19.90;99.90;;;19.11;62.33;102055.81;5056156;28;20464;-79
2022/09/01 10:13:35;;;;;;;1.10;0.32;;;20.10;99.90;;;19.39;60.74;102054.97;5038986;28;20037;-79
2022/09/01 10:16:28;;;;;;;0.50;0.30;;;20.30;99.90;;;19.72;59.79;102054.69;5058836;28;20035;-80
2022/09/01 10:19:13;;;;;;;2.83;0.22;;;20.60;99.90;;;20.04;59.00;102052.59;5030597;28;20045;-79
2022/09/01 10:21:48;;;;;;;0.50;0.22;;;20.80;99.90;;;20.20;58.76;102057.78;5040369;28;20049;-79
2022/09/01 10:24:40;;;;;;;0.90;0.43;;;20.90;99.90;;;20.13;57.02;102051.13;5024317;28;20036;-79
2022/09/01 10:27:24;;;;;;;2.78;0.32;;;20.70;99.90;;;19.64;58.17;102057.81;5039764;28;20044;-79
2022/09/01 10:30:21;;;;;;;2.50;0.52;;;20.60;99.90;;;19.38;58.53;102059.44;5040658;28;20031;-80
2022/09/01 10:33:06;;;;;;;1.52;0.38;;;20.40;99.90;;;19.30;58.65;102053.72;5026956;28;20037;-79
2022/09/01 10:35:41;;;;;;;1.27;0.30;;;20.40;99.90;;;19.04;58.16;102056.19;5022886;28;20041;-80
2022/09/01 10:38:22;;;;;;;0.15;0.15;;;20.00;99.90;;;18.93;59.25;102058.66;5056701;28;20100;-79
2022/09/01 10:41:06;;;;;;;3.13;0.40;;;20.00;99.90;;;19.19;59.29;102065.06;5041861;28;20033;-79
2022/09/01 10:43:50;;;;;;;1.10;0.32;;;20.20;99.90;;;19.63;59.21;102063.22;5025857;28;20399;-79
2022/09/01 10:46:22;;;;;;;1.58;0.30;;;20.50;99.90;;;19.99;57.25;102059.19;5022892;28;20045;-79
2022/09/01 10:48:59;;;;;;;1.08;0.40;;;20.50;99.90;;;19.85;59.59;102068.97;5042783;28;20033;-79
2022/09/01 10:51:28;;;;;;;1.55;0.47;;;20.70;99.90;;;19.96;58.53;102070.09;5020898;28;20121;-79
2022/09/01 10:53:58;;;;;;;1.63;0.50;;;20.90;99.90;;;20.32;58.46;102068.63;5045440;28;20090;-79
2022/09/01 10:56:45;;;;;;;4.70;0.52;;;21.20;99.90;;;20.69;57.81;102085.75;5022510;28;20036;-79
2022/09/01 10:59:28;;;;;;;1.17;0.45;;;21.20;99.90;;;20.44;56.56;102063.31;5038480;28;20014;-79
2022/09/01 11:02:20;;;;;;;5.32;0.50;;;21.30;99.90;;;20.56;57.43;102075.00;5041011;28;20033;-79
2022/09/01 11:04:52;;;;;;;3.53;0.47;;;21.50;99.90;;;20.85;56.73;102082.91;5027896;28;20037;-78
2022/09/01 11:07:25;;;;;;;1.98;0.63;;;21.60;99.90;;;21.09;56.38;102083.00;5039586;28;20036;-78